createdAt,value
2022-08-11T00:01:54.096Z,4.22
2022-08-11T00:04:21.455Z,3.67
2022-08-11T00:06:48.263Z,3.63
2022-08-11T00:09:19.501Z,3.65
2022-08-11T00:11:48.103Z,4.20
2022-08-11T00:14:21.537Z,3.55
2022-08-11T00:16:56.906Z,3.65
2022-08-11T00:20:12.186Z,4.30
2022-08-11T00:22:20.445Z,3.83
2022-08-11T00:24:51.698Z,3.80
2022-08-11T00:27:21.539Z,4.18
2022-08-11T00:29:54.460Z,3.90
2022-08-11T00:32:21.239Z,3.83
2022-08-11T00:34:48.130Z,4.60
2022-08-11T00:37:19.972Z,4.40
2022-08-11T00:39:48.371Z,4.30
2022-08-11T00:42:38.115Z,4.70
2022-08-11T00:45:23.040Z,4.38
2022-08-11T00:47:49.930Z,5.00
2022-08-11T00:50:34.908Z,5.20
2022-08-11T00:53:20.136Z,4.40
2022-08-11T00:56:04.901Z,4.38
2022-08-11T00:58:43.639Z,4.78
2022-08-11T01:01:17.683Z,4.15
2022-08-11T01:03:48.285Z,6.00
2022-08-11T01:06:29.659Z,4.68
2022-08-11T01:08:55.940Z,4.93
2022-08-11T01:11:56.031Z,5.95
2022-08-11T01:14:41.672Z,5.20
2022-08-11T01:17:35.676Z,5.38
2022-08-11T01:20:48.403Z,5.82
2022-08-11T01:23:24.854Z,6.13
2022-08-11T01:26:09.864Z,6.72
2022-08-11T01:28:48.170Z,5.15
2022-08-11T01:31:23.862Z,6.65
2022-08-11T01:34:08.992Z,4.72
2022-08-11T01:36:41.222Z,5.72
2022-08-11T01:39:28.718Z,4.22
2022-08-11T01:42:20.423Z,4.65
2022-08-11T01:44:57.906Z,5.03
2022-08-11T01:47:53.521Z,4.15
2022-08-11T01:50:21.379Z,4.03
2022-08-11T01:53:06.499Z,4.28
2022-08-11T01:56:02.188Z,4.88
2022-08-11T01:58:47.499Z,4.35
2022-08-11T02:01:32.573Z,5.90
2022-08-11T02:04:09.500Z,5.57
2022-08-11T02:06:57.306Z,6.13
2022-08-11T02:09:33.251Z,4.90
2022-08-11T02:12:10.140Z,5.45
2022-08-11T02:15:04.731Z,5.93
2022-08-11T02:17:56.988Z,6.28
2022-08-11T02:20:44.326Z,6.03
2022-08-11T02:24:05.881Z,6.07
2022-08-11T02:26:35.673Z,5.75
2022-08-11T02:29:02.006Z,5.78
2022-08-11T02:32:24.727Z,5.90
2022-08-11T02:34:42.632Z,5.72
2022-08-11T02:37:23.473Z,6.43
2022-08-11T02:39:54.035Z,6.28
2022-08-11T02:42:33.409Z,6.78
2022-08-11T02:45:11.818Z,7.03
2022-08-11T02:48:15.188Z,7.18
2022-08-11T02:50:49.348Z,6.90
2022-08-11T02:53:21.731Z,7.07
2022-08-11T02:56:08.685Z,7.60
2022-08-11T02:59:10.010Z,6.43
2022-08-11T03:01:49.243Z,6.35
2022-08-11T03:04:25.133Z,6.63
2022-08-11T03:07:29.315Z,6.32
2022-08-11T03:10:04.910Z,6.35
2022-08-11T03:15:41.115Z,5.78
2022-08-11T03:18:25.045Z,6.30
2022-08-11T03:21:11.311Z,6.55
2022-08-11T03:23:57.919Z,6.20
2022-08-11T03:26:39.681Z,6.80
2022-08-11T03:29:12.004Z,5.88
2022-08-11T03:31:49.337Z,5.78
2022-08-11T03:34:18.174Z,6.60
2022-08-11T03:37:16.130Z,6.20
2022-08-11T03:40:02.740Z,6.03
2022-08-11T03:42:53.194Z,6.25
2022-08-11T03:45:31.899Z,6.05
2022-08-11T03:48:16.723Z,6.57
2022-08-11T03:51:01.286Z,6.50
2022-08-11T03:53:30.750Z,5.40
2022-08-11T03:56:05.810Z,5.95
2022-08-11T03:58:32.095Z,6.63
2022-08-11T04:01:15.882Z,6.47
2022-08-11T04:03:57.720Z,6.68
2022-08-11T04:06:47.515Z,6.15
2022-08-11T04:09:32.359Z,6.35
2022-08-11T04:12:36.144Z,6.80
2022-08-11T04:16:00.890Z,5.63
2022-08-11T04:18:39.265Z,5.68
2022-08-11T04:21:26.767Z,6.30
2022-08-11T04:24:36.438Z,5.38
2022-08-11T04:27:35.357Z,6.97
2022-08-11T04:30:09.195Z,6.43
2022-08-11T04:32:56.990Z,7.63
2022-08-11T04:35:30.527Z,7.70
2022-08-11T04:38:15.716Z,8.57
2022-08-11T04:41:00.912Z,8.98
2022-08-11T04:43:37.282Z,8.48
2022-08-11T04:46:37.419Z,9.57
2022-08-11T04:49:33.929Z,9.32
2022-08-11T04:52:19.279Z,8.82
2022-08-11T04:55:15.590Z,9.48
2022-08-11T04:58:12.086Z,8.45
2022-08-11T05:01:10.100Z,8.32
2022-08-11T05:03:51.707Z,7.95
2022-08-11T05:06:28.163Z,7.25
2022-08-11T05:08:54.454Z,7.70
2022-08-11T05:11:45.085Z,8.27
2022-08-11T05:14:30.292Z,7.55
2022-08-11T05:17:23.031Z,7.88
2022-08-11T05:20:08.046Z,7.28
2022-08-11T05:22:53.725Z,8.93
2022-08-11T05:26:43.960Z,6.75
2022-08-11T05:28:55.331Z,7.45
2022-08-11T05:31:51.961Z,7.28
2022-08-11T05:34:41.103Z,5.93
2022-08-11T05:37:26.655Z,6.20
2022-08-11T05:40:15.254Z,7.15
2022-08-11T05:43:08.060Z,6.40
2022-08-11T05:46:03.770Z,6.57
2022-08-11T05:48:55.465Z,5.57
2022-08-11T05:51:55.073Z,6.63
2022-08-11T05:54:41.240Z,6.60
2022-08-11T05:57:08.668Z,6.35
2022-08-11T05:59:35.058Z,5.78
2022-08-11T06:02:05.912Z,5.88
2022-08-11T06:04:32.772Z,6.13
2022-08-11T06:06:59.112Z,6.78
2022-08-11T06:09:27.726Z,6.25
2022-08-11T06:11:55.079Z,6.15
2022-08-11T06:14:22.390Z,6.60
2022-08-11T06:16:49.751Z,5.70
2022-08-11T06:19:16.963Z,6.07
2022-08-11T06:21:47.592Z,5.50
2022-08-11T06:24:14.548Z,5.80
2022-08-11T06:27:01.695Z,5.72
2022-08-11T06:29:38.045Z,5.00
2022-08-11T06:32:15.500Z,6.43
2022-08-11T06:34:55.744Z,5.00
2022-08-11T06:37:25.007Z,7.13
2022-08-11T06:39:57.467Z,5.60
2022-08-11T06:42:46.251Z,6.15
2022-08-11T06:45:15.551Z,5.32
2022-08-11T06:47:45.274Z,5.72
2022-08-11T06:50:34.069Z,6.25
2022-08-11T06:53:00.649Z,5.25
2022-08-11T06:55:56.923Z,5.18
2022-08-11T06:58:46.747Z,4.80
2022-08-11T07:01:15.135Z,4.65
2022-08-11T07:03:47.727Z,5.50
2022-08-11T07:06:41.745Z,5.68
2022-08-11T07:09:48.912Z,5.55
2022-08-11T07:12:54.723Z,4.28
2022-08-11T07:16:11.032Z,4.57
2022-08-11T07:18:53.936Z,5.13
2022-08-11T07:22:01.951Z,4.70
2022-08-11T07:24:59.764Z,4.53
2022-08-11T07:27:49.719Z,4.47
2022-08-11T07:30:17.266Z,5.70
2022-08-11T07:32:50.146Z,4.50
2022-08-11T07:35:17.741Z,4.45
2022-08-11T07:37:47.739Z,4.85
2022-08-11T07:40:15.906Z,4.43
2022-08-11T07:42:46.510Z,4.30
2022-08-11T07:45:31.887Z,4.60
2022-08-11T07:51:02.510Z,3.97
2022-08-11T07:53:29.274Z,4.30
2022-08-11T07:55:56.451Z,4.90
2022-08-11T07:58:45.038Z,4.40
2022-08-11T08:01:38.384Z,4.40
2022-08-11T08:04:24.361Z,3.92
2022-08-11T08:07:09.417Z,4.35
2022-08-11T08:09:54.992Z,4.05
2022-08-11T08:12:42.296Z,4.22
2022-08-11T08:15:28.623Z,3.22
2022-08-11T08:18:09.477Z,4.35
2022-08-11T08:20:49.944Z,4.13
2022-08-11T08:23:17.539Z,4.47
2022-08-11T08:25:45.530Z,4.10
2022-08-11T08:28:14.686Z,4.63
2022-08-11T08:30:48.088Z,5.28
2022-08-11T08:33:19.471Z,3.80
2022-08-11T08:35:54.220Z,4.38
2022-08-11T08:38:22.139Z,4.40
2022-08-11T08:40:52.383Z,3.95
2022-08-11T08:43:18.975Z,4.10
2022-08-11T08:45:45.852Z,4.38
2022-08-11T08:48:14.742Z,3.70
2022-08-11T08:51:03.582Z,3.75
2022-08-11T08:53:33.362Z,4.35
2022-08-11T08:56:00.394Z,4.20
2022-08-11T08:58:26.863Z,4.43
2022-08-11T09:00:54.629Z,3.83
2022-08-11T09:04:04.102Z,4.05
2022-08-11T09:06:08.171Z,4.30
2022-08-11T09:08:35.178Z,4.20
2022-08-11T09:11:21.267Z,4.10
2022-08-11T09:14:04.819Z,4.07
2022-08-11T09:16:34.433Z,4.32
2022-08-11T09:19:00.872Z,3.80
2022-08-11T09:21:39.355Z,3.90
2022-08-11T09:24:32.383Z,3.78
2022-08-11T09:27:02.933Z,4.55
2022-08-11T09:29:32.987Z,4.38
2022-08-11T09:31:59.722Z,4.20
2022-08-11T09:34:27.017Z,4.30
2022-08-11T09:37:29.045Z,4.35
2022-08-11T09:40:29.110Z,3.85
2022-08-11T09:43:17.870Z,4.50
2022-08-11T09:45:51.453Z,4.20
2022-08-11T09:48:21.817Z,3.92
2022-08-11T09:50:52.201Z,4.15
2022-08-11T09:53:36.845Z,4.40
2022-08-11T09:56:27.990Z,4.35
2022-08-11T09:58:54.397Z,4.10
2022-08-11T10:01:28.105Z,5.78
2022-08-11T10:04:03.834Z,4.05
2022-08-11T10:06:54.054Z,4.45
2022-08-11T10:09:25.031Z,4.28
2022-08-11T10:11:55.541Z,4.10
2022-08-11T10:14:44.829Z,4.55
2022-08-11T10:17:12.227Z,4.25
2022-08-11T10:19:39.327Z,5.88
2022-08-11T10:22:26.932Z,4.57
2022-08-11T10:25:14.313Z,4.65
2022-08-11T10:28:32.744Z,4.13
2022-08-11T10:30:48.076Z,4.43
2022-08-11T10:33:37.939Z,4.22
2022-08-11T10:36:16.313Z,4.47
2022-08-11T10:38:43.228Z,4.18
2022-08-11T10:41:28.591Z,4.15
2022-08-11T10:44:02.107Z,4.90
2022-08-11T10:49:14.905Z,20.15
2022-08-11T10:52:00.057Z,5.10
2022-08-11T10:54:45.206Z,4.90
2022-08-11T10:57:30.741Z,12.80
2022-08-11T10:59:57.724Z,4.53
2022-08-11T11:02:24.198Z,4.80
2022-08-11T11:05:03.926Z,4.93
2022-08-11T11:07:50.608Z,4.50
2022-08-11T11:10:16.943Z,4.30
2022-08-11T11:13:06.123Z,5.07
2022-08-11T11:15:53.255Z,4.72
2022-08-11T11:18:21.034Z,5.32
2022-08-11T11:20:51.593Z,4.43
2022-08-11T11:23:20.048Z,5.30
2022-08-11T11:26:09.820Z,5.05
2022-08-11T11:28:51.503Z,7.10
2022-08-11T11:31:36.554Z,8.30
2022-08-11T11:34:30.345Z,5.63
2022-08-11T11:36:58.112Z,18.15
2022-08-11T11:39:26.814Z,8.38
2022-08-11T11:41:54.629Z,7.40
2022-08-11T11:44:22.579Z,5.28
2022-08-11T11:46:49.239Z,4.90
2022-08-11T11:49:18.539Z,6.65
2022-08-11T11:51:50.023Z,6.15
2022-08-11T11:54:17.728Z,4.78
2022-08-11T11:56:45.372Z,6.63
2022-08-11T11:59:30.939Z,4.38
2022-08-11T12:01:57.623Z,6.65
2022-08-11T12:04:24.761Z,6.43
2022-08-11T12:07:11.365Z,7.53
2022-08-11T12:09:37.851Z,8.73
2022-08-11T12:12:23.018Z,5.65
2022-08-11T12:17:15.707Z,4.22
2022-08-11T12:19:48.414Z,4.25
2022-08-11T12:22:33.496Z,6.38
2022-08-11T12:25:19.729Z,6.28
2022-08-11T12:27:46.900Z,7.90
2022-08-11T12:30:13.403Z,6.85
2022-08-11T12:32:41.100Z,7.00
2022-08-11T12:35:07.991Z,7.05
2022-08-11T12:37:39.257Z,5.70
2022-08-11T12:40:43.446Z,6.68
2022-08-11T12:43:37.382Z,5.93
2022-08-11T12:46:06.523Z,6.20
2022-08-11T12:49:00.532Z,6.57
2022-08-11T12:52:11.528Z,7.95
2022-08-11T12:54:57.124Z,7.18
2022-08-11T12:57:53.559Z,5.93
2022-08-11T13:00:39.277Z,7.72
2022-08-11T13:03:25.604Z,7.93
2022-08-11T13:05:53.598Z,10.63
2022-08-11T13:08:22.019Z,7.75
2022-08-11T13:11:08.868Z,14.20
2022-08-11T13:13:55.968Z,8.85
2022-08-11T13:16:23.348Z,11.90
2022-08-11T13:18:50.801Z,11.80
2022-08-11T13:21:20.138Z,11.05
2022-08-11T13:24:00.389Z,12.30
2022-08-11T13:26:41.538Z,17.58
2022-08-11T13:29:15.586Z,9.52
2022-08-11T13:31:42.903Z,15.30
2022-08-11T13:34:09.762Z,14.32
2022-08-11T13:36:36.356Z,13.65
2022-08-11T13:39:03.409Z,10.48
2022-08-11T13:41:43.968Z,15.00
2022-08-11T13:44:12.378Z,28.58
2022-08-11T13:46:44.460Z,10.98
2022-08-11T13:49:11.064Z,11.40
2022-08-11T13:51:39.903Z,8.68
2022-08-11T13:54:10.353Z,16.30
2022-08-11T13:56:41.275Z,8.80
2022-08-11T13:59:08.359Z,14.30
2022-08-11T14:02:20.770Z,18.27
2022-08-11T14:04:33.966Z,17.73
2022-08-11T14:07:02.492Z,14.95
2022-08-11T14:09:30.480Z,16.23
2022-08-11T14:12:21.328Z,16.33
2022-08-11T14:14:56.823Z,15.18
2022-08-11T14:17:48.385Z,10.55
2022-08-11T14:20:14.193Z,18.63
2022-08-11T14:22:57.211Z,15.45
2022-08-11T14:26:00.818Z,14.43
2022-08-11T14:28:35.178Z,13.82
2022-08-11T14:31:00.471Z,13.25
2022-08-11T14:33:31.511Z,14.93
2022-08-11T14:36:14.657Z,10.93
2022-08-11T14:38:42.054Z,17.90
2022-08-11T14:41:27.998Z,14.40
2022-08-11T14:44:15.065Z,16.83
2022-08-11T14:47:01.182Z,16.92
2022-08-11T14:49:28.036Z,21.05
2022-08-11T14:51:55.773Z,25.30
2022-08-11T14:54:44.446Z,17.60
2022-08-11T14:57:11.348Z,20.10
2022-08-11T14:59:38.158Z,16.52
2022-08-11T15:02:23.838Z,24.42
2022-08-11T15:04:55.100Z,22.05
2022-08-11T15:07:29.558Z,23.55
2022-08-11T15:10:12.806Z,23.15
2022-08-11T15:12:43.830Z,20.08
2022-08-11T15:15:29.180Z,24.17
2022-08-11T15:17:57.155Z,19.10
2022-08-11T15:20:42.868Z,26.58
2022-08-11T15:23:27.817Z,17.42
2022-08-11T15:25:56.795Z,16.27
2022-08-11T15:28:43.199Z,37.10
2022-08-11T15:31:29.409Z,15.30
2022-08-11T15:34:18.090Z,14.48
2022-08-11T15:37:05.672Z,12.35
2022-08-11T15:39:34.562Z,18.13
2022-08-11T15:42:20.635Z,14.15
2022-08-11T15:45:08.885Z,19.17
2022-08-11T15:47:44.568Z,16.25
2022-08-11T15:50:17.751Z,20.25
2022-08-11T15:52:53.336Z,13.77
2022-08-11T15:55:21.138Z,16.25
2022-08-11T15:58:07.454Z,19.65
2022-08-11T16:01:02.133Z,16.80
2022-08-11T16:04:06.844Z,14.63
2022-08-11T16:06:35.926Z,17.58
2022-08-11T16:09:05.888Z,17.23
2022-08-11T16:11:39.538Z,15.13
2022-08-11T16:14:25.412Z,12.10
2022-08-11T16:16:53.438Z,10.25
2022-08-11T16:19:20.367Z,13.65
2022-08-11T16:21:50.533Z,19.50
2022-08-11T16:27:04.431Z,18.25
2022-08-11T16:27:14.361Z,10.13
2022-08-11T16:29:43.590Z,17.65
2022-08-11T16:32:16.834Z,16.63
2022-08-11T16:35:07.764Z,14.82
2022-08-11T16:37:53.476Z,21.08
2022-08-11T16:40:20.681Z,17.88
2022-08-11T16:43:10.725Z,19.38
2022-08-11T16:45:57.166Z,11.27
2022-08-11T16:48:35.856Z,15.75
2022-08-11T16:51:08.380Z,19.27
2022-08-11T16:54:03.348Z,22.40
2022-08-11T16:56:44.794Z,11.93
2022-08-11T16:59:17.127Z,9.98
2022-08-11T17:01:53.108Z,13.15
2022-08-11T17:04:43.320Z,14.38
2022-08-11T17:07:40.602Z,22.60
2022-08-11T17:10:39.381Z,13.38
2022-08-11T17:13:18.634Z,13.00
2022-08-11T17:16:06.231Z,11.38
2022-08-11T17:18:45.461Z,15.15
2022-08-11T17:21:12.746Z,13.73
2022-08-11T17:23:52.774Z,15.57
2022-08-11T17:26:19.130Z,9.63
2022-08-11T17:28:46.961Z,12.50
2022-08-11T17:31:32.726Z,14.77
2022-08-11T17:34:38.162Z,11.20
2022-08-11T17:37:04.699Z,10.30
2022-08-11T17:39:31.645Z,10.50
2022-08-11T17:42:18.119Z,8.18
2022-08-11T17:45:03.925Z,7.50
2022-08-11T17:47:49.630Z,10.18
2022-08-11T17:50:17.659Z,8.98
2022-08-11T17:53:03.921Z,7.07
2022-08-11T17:55:52.343Z,7.07
2022-08-11T17:58:39.159Z,6.13
2022-08-11T18:01:09.239Z,8.30
2022-08-11T18:03:39.866Z,6.57
2022-08-11T18:06:07.633Z,7.80
2022-08-11T18:08:59.289Z,7.30
2022-08-11T18:12:07.064Z,8.45
2022-08-11T18:14:49.694Z,5.43
2022-08-11T18:20:19.549Z,7.43
2022-08-11T18:23:05.938Z,5.95
2022-08-11T18:25:52.620Z,4.63
2022-08-11T18:28:41.851Z,4.57
2022-08-11T18:31:27.940Z,4.75
2022-08-11T18:34:13.695Z,4.93
2022-08-11T18:37:25.977Z,4.25
2022-08-11T18:40:22.318Z,3.92
2022-08-11T18:43:08.250Z,3.65
2022-08-11T18:46:06.193Z,3.90
2022-08-11T18:48:53.469Z,4.07
2022-08-11T18:51:40.132Z,4.00
2022-08-11T18:54:27.117Z,3.63
2022-08-11T18:57:14.399Z,4.45
2022-08-11T19:00:00.586Z,3.33
2022-08-11T19:02:49.571Z,3.83
2022-08-11T19:06:05.178Z,3.78
2022-08-11T19:11:27.222Z,3.70
2022-08-11T19:14:12.402Z,4.18
2022-08-11T19:16:59.583Z,4.00
2022-08-11T19:19:47.716Z,3.85
2022-08-11T19:22:34.783Z,4.57
2022-08-11T19:25:25.121Z,5.00
2022-08-11T19:28:11.582Z,5.10
2022-08-11T19:30:57.001Z,3.90
2022-08-11T19:36:46.805Z,4.10
2022-08-11T19:39:32.949Z,4.68
2022-08-11T19:42:18.303Z,4.72
2022-08-11T19:45:03.551Z,4.95
2022-08-11T19:47:49.562Z,4.40
2022-08-11T19:50:35.059Z,4.18
2022-08-11T19:53:23.259Z,4.43
2022-08-11T19:58:54.129Z,4.30
2022-08-11T20:01:38.944Z,4.13
2022-08-11T20:04:43.787Z,4.32
2022-08-11T20:07:31.812Z,4.00
2022-08-11T20:10:17.890Z,4.25
2022-08-11T20:13:03.924Z,4.07
2022-08-11T20:15:49.371Z,4.55
2022-08-11T20:18:35.793Z,3.40
2022-08-11T20:21:29.833Z,4.95
2022-08-11T20:24:19.130Z,4.07
2022-08-11T20:27:05.117Z,4.20
2022-08-11T20:29:52.171Z,4.72
2022-08-11T20:32:37.422Z,5.20
2022-08-11T20:35:23.371Z,5.28
2022-08-11T20:38:13.502Z,4.70
2022-08-11T20:40:59.074Z,4.80
2022-08-11T20:44:07.689Z,3.90
2022-08-11T20:46:49.955Z,3.58
2022-08-11T20:49:45.948Z,4.35
2022-08-11T20:52:40.040Z,4.00
2022-08-11T20:55:51.902Z,3.53
2022-08-11T20:58:47.965Z,3.85
2022-08-11T21:01:37.640Z,4.28
2022-08-11T21:04:24.048Z,3.72
2022-08-11T21:07:10.563Z,3.70
2022-08-11T21:10:09.581Z,4.25
2022-08-11T21:12:57.397Z,4.32
2022-08-11T21:15:47.369Z,4.13
2022-08-11T21:18:47.336Z,4.05
2022-08-11T21:24:33.270Z,3.88
2022-08-11T21:27:18.767Z,4.72
2022-08-11T21:30:10.145Z,5.03
2022-08-11T21:32:55.431Z,3.85
2022-08-11T21:35:45.055Z,4.72
2022-08-11T21:38:30.511Z,3.33
2022-08-11T21:41:16.100Z,3.70
2022-08-11T21:44:01.130Z,3.92
2022-08-11T21:46:46.639Z,3.88
2022-08-11T21:52:16.687Z,4.00
2022-08-11T21:55:02.390Z,3.20
2022-08-11T21:57:49.967Z,4.15
2022-08-11T22:00:35.157Z,3.42
2022-08-11T22:03:20.353Z,3.50
2022-08-11T22:06:05.407Z,3.55
2022-08-11T22:08:50.595Z,3.55
2022-08-11T22:11:38.497Z,3.33
2022-08-11T22:14:23.671Z,3.80
2022-08-11T22:17:09.580Z,3.70
2022-08-11T22:19:55.584Z,3.95
2022-08-11T22:22:52.160Z,4.50
2022-08-11T22:25:39.073Z,3.83
2022-08-11T22:28:31.289Z,4.18
2022-08-11T22:31:16.426Z,3.80
2022-08-11T22:34:02.541Z,3.92
2022-08-11T22:36:48.710Z,3.72
2022-08-11T22:39:35.271Z,3.85
2022-08-11T22:42:24.155Z,4.15
2022-08-11T22:45:19.364Z,3.97
2022-08-11T22:48:05.969Z,3.78
2022-08-11T22:50:51.015Z,4.00
2022-08-11T22:53:57.848Z,4.15
2022-08-11T22:56:42.034Z,4.35
2022-08-11T22:59:27.208Z,3.75
2022-08-11T23:02:12.731Z,3.90
2022-08-11T23:04:58.811Z,4.00
2022-08-11T23:07:50.203Z,3.97
2022-08-11T23:10:37.735Z,3.58
2022-08-11T23:13:22.850Z,5.03
2022-08-11T23:16:08.222Z,3.50
2022-08-11T23:18:53.921Z,4.20
2022-08-11T23:21:39.214Z,3.88
2022-08-11T23:24:24.233Z,4.20
2022-08-11T23:27:08.955Z,4.03
2022-08-11T23:29:54.503Z,4.25
2022-08-11T23:35:39.915Z,3.88
2022-08-11T23:38:25.802Z,3.83
2022-08-11T23:41:11.282Z,3.42
2022-08-11T23:46:42.188Z,3.47
2022-08-11T23:49:28.222Z,3.35
2022-08-11T23:52:13.340Z,3.90
2022-08-11T23:54:58.383Z,3.75
2022-08-11T23:57:49.108Z,3.58
